Time;durP1;ratioP1;P1;durP2;ratioP2;P2;SDS_P1;SDS_P2;PMS_P1;PMS_P2;Temp;Humidity;BMP_temperature;BMP_pressure;BME280_temperature;BME280_humidity;BME280_pressure;Samples;Min_cycle;Max_cycle;Signal;HPM_P1;HPM_P2
2022/06/18 00:01:57;;;;;;;6.47;2.80;;;;;;;24.89;50.81;101647.81;5050770;28;20056;-48
2022/06/18 00:04:46;;;;;;;9.05;3.42;;;;;;;24.89;50.60;101645.03;5047288;28;20400;-49
2022/06/18 00:07:38;;;;;;;7.28;3.30;;;;;;;24.86;50.72;101642.94;5050237;28;20092;-51
2022/06/18 00:10:23;;;;;;;7.65;3.13;;;;;;;24.85;50.77;101650.50;5049813;28;20045;-48
2022/06/18 00:16:26;;;;;;;8.38;3.30;;;;;;;24.81;51.07;101638.41;5042119;28;20050;-48
2022/06/18 00:19:14;;;;;;;7.55;3.10;;;;;;;24.79;51.08;101639.91;5064162;28;20462;-46
2022/06/18 00:22:03;;;;;;;6.97;3.20;;;;;;;24.77;51.18;101636.66;5045952;28;20045;-47
2022/06/18 00:24:34;;;;;;;6.95;3.10;;;;;;;24.75;51.43;101636.19;5051116;28;20056;-47
2022/06/18 00:27:22;;;;;;;7.35;2.92;;;;;;;24.71;51.72;101636.06;5037177;28;20060;-48
2022/06/18 00:30:15;;;;;;;4.80;3.10;;;;;;;24.70;51.93;101641.97;5054008;28;20123;-47
2022/06/18 00:33:03;;;;;;;8.05;2.92;;;;;;;24.67;51.78;101637.91;5049215;28;20041;-48
2022/06/18 00:35:53;;;;;;;6.07;3.17;;;;;;;24.65;51.80;101643.00;5050167;28;20045;-48
2022/06/18 00:38:43;;;;;;;6.13;3.03;;;;;;;24.63;51.92;101640.59;5034042;28;20046;-48
2022/06/18 00:41:32;;;;;;;9.80;3.15;;;;;;;24.62;51.96;101640.91;5033162;28;20041;-49
2022/06/18 00:44:23;;;;;;;5.45;3.03;;;;;;;24.60;52.16;101635.69;5037505;28;20041;-49
2022/06/18 00:47:43;;;;;;;5.82;3.20;;;;;;;24.59;52.33;101644.41;5051912;28;20127;-49
2022/06/18 00:50:51;;;;;;;5.45;3.03;;;;;;;24.53;52.27;101629.84;5011518;28;20052;-46
2022/06/18 00:53:55;;;;;;;5.78;2.95;;;;;;;24.51;52.49;101629.41;5053663;28;20047;-49
2022/06/18 00:57:10;;;;;;;8.13;3.27;;;;;;;24.49;52.77;101628.94;5041683;28;20053;-50
2022/06/18 01:00:17;;;;;;;6.80;3.25;;;;;;;24.47;52.84;101636.81;5054435;28;20056;-47
2022/06/18 01:03:05;;;;;;;7.88;3.15;;;;;;;24.45;52.91;101634.34;5057225;28;20063;-47
2022/06/18 01:05:54;;;;;;;5.72;3.00;;;;;;;24.45;52.98;101633.53;5045863;28;20400;-47
2022/06/18 01:08:42;;;;;;;7.25;3.00;;;;;;;24.42;53.26;101623.88;5051253;28;20072;-47
2022/06/18 01:11:33;;;;;;;8.00;2.90;;;;;;;24.41;53.42;101627.84;5071209;28;20048;-49
2022/06/18 01:14:21;;;;;;;7.78;3.22;;;;;;;24.40;53.24;101630.97;5035542;28;20040;-46
2022/06/18 01:17:09;;;;;;;7.38;3.42;;;;;;;24.36;53.50;101630.00;5064459;28;20157;-47
2022/06/18 01:19:59;;;;;;;6.68;3.13;;;;;;;24.30;53.54;101625.81;5042617;28;20056;-47
2022/06/18 01:23:06;;;;;;;5.03;3.00;;;;;;;24.28;53.93;101626.16;5038211;28;20041;-47
2022/06/18 01:25:55;;;;;;;7.55;3.55;;;;;;;24.29;53.79;101618.59;5055984;28;20048;-50
2022/06/18 01:28:43;;;;;;;5.25;3.08;;;;;;;24.29;53.88;101618.59;5065811;28;20490;-47
2022/06/18 01:31:31;;;;;;;7.47;3.60;;;;;;;24.27;53.82;101616.19;5069226;28;20052;-50
2022/06/18 01:34:20;;;;;;;6.05;3.40;;;;;;;24.26;53.91;101608.97;5044277;28;20119;-49
2022/06/18 01:37:12;;;;;;;6.55;3.08;;;;;;;24.24;54.20;101608.47;5048099;28;20040;-49
2022/06/18 01:40:02;;;;;;;5.38;3.20;;;;;;;24.21;54.56;101607.19;5053632;28;20045;-47
2022/06/18 01:42:51;;;;;;;8.25;3.33;;;;;;;24.15;54.54;101616.94;5055703;28;20505;-48
2022/06/18 01:45:40;;;;;;;5.25;3.33;;;;;;;24.10;54.65;101619.94;5041276;28;20580;-51
2022/06/18 01:48:34;;;;;;;7.20;3.30;;;;;;;24.09;55.02;101617.47;5061300;28;20052;-47
2022/06/18 01:51:32;;;;;;;8.38;3.70;;;;;;;24.08;54.70;101613.09;5052403;28;20063;-44
2022/06/18 01:54:23;;;;;;;6.53;3.42;;;;;;;24.07;54.65;101612.25;5042346;28;20052;-48
2022/06/18 01:57:27;;;;;;;7.05;3.40;;;;;;;24.08;55.11;101599.16;5070367;28;20076;-44
2022/06/18 02:00:19;;;;;;;6.88;3.63;;;;;;;24.08;55.08;101604.72;5043125;28;20088;-49
2022/06/18 02:03:14;;;;;;;7.05;3.50;;;;;;;24.05;54.95;101599.81;5053942;28;20499;-49
2022/06/18 02:05:55;;;;;;;8.77;3.60;;;;;;;24.02;55.35;101590.19;5053719;28;20502;-46
2022/06/18 02:08:42;;;;;;;6.38;3.40;;;;;;;24.00;55.18;101592.50;5057705;28;20036;-47
2022/06/18 02:11:30;;;;;;;5.13;3.35;;;;;;;24.00;55.22;101598.06;5039788;28;20052;-47
2022/06/18 02:14:18;;;;;;;6.07;3.30;;;;;;;23.99;55.31;101596.44;5048584;28;20055;-44
2022/06/18 02:17:08;;;;;;;7.78;3.53;;;;;;;23.96;55.45;101594.34;5062583;28;20487;-45
2022/06/18 02:20:03;;;;;;;9.32;3.70;;;;;;;23.93;55.48;101590.28;5066569;28;20048;-46
2022/06/18 02:22:53;;;;;;;8.63;3.72;;;;;;;23.90;55.94;101592.91;5055273;28;20055;-48
2022/06/18 02:25:40;;;;;;;9.45;3.65;;;;;;;23.89;55.95;101591.28;5054412;28;20488;-48
2022/06/18 02:28:32;;;;;;;5.35;3.35;;;;;;;23.86;56.19;101591.94;5073140;28;20098;-47
2022/06/18 02:31:28;;;;;;;8.85;4.20;;;;;;;23.84;56.25;101588.72;5073592;28;20495;-48
2022/06/18 02:34:05;;;;;;;7.03;3.67;;;;;;;23.81;56.47;101585.47;5042902;28;20048;-48
2022/06/18 02:36:53;;;;;;;7.25;3.58;;;;;;;23.78;56.40;101582.53;5065669;28;20057;-47
2022/06/18 02:39:53;;;;;;;12.88;3.97;;;;;;;23.75;56.69;101586.81;5063234;28;20049;-48
2022/06/18 02:42:41;;;;;;;5.57;3.67;;;;;;;23.72;57.02;101586.66;5075759;28;20055;-48
2022/06/18 02:45:29;;;;;;;9.45;4.40;;;;;;;23.70;56.78;101584.19;5076447;28;20055;-50
2022/06/18 02:48:18;;;;;;;7.07;4.10;;;;;;;23.70;56.93;101586.16;5049514;28;20402;-48
2022/06/18 02:51:07;;;;;;;7.65;3.95;;;;;;;23.68;57.08;101582.91;5039258;28;20392;-50
2022/06/18 02:53:54;;;;;;;10.35;4.30;;;;;;;23.67;57.12;101584.88;5055416;28;20044;-48
2022/06/18 02:56:43;;;;;;;7.70;4.05;;;;;;;23.65;57.13;101586.38;5060273;28;20041;-50
2022/06/18 02:59:31;;;;;;;11.57;4.70;;;;;;;23.63;57.14;101586.69;5057460;28;20044;-48
2022/06/18 03:02:20;;;;;;;10.73;3.97;;;;;;;23.60;57.27;101590.97;5058646;28;20044;-50
2022/06/18 03:05:10;;;;;;;9.88;4.30;;;;;;;23.61;57.04;101589.00;5070352;28;20173;-49
2022/06/18 03:07:58;;;;;;;10.50;4.25;;;;;;;23.60;57.08;101592.94;5058098;28;20045;-51
2022/06/18 03:13:52;;;;;;;6.40;3.80;;;;;;;23.58;57.28;101592.47;5063122;28;20059;-47
2022/06/18 03:16:40;;;;;;;10.00;4.38;;;;;;;23.56;57.25;101601.16;5060638;28;20048;-52
2022/06/18 03:19:35;;;;;;;9.73;4.43;;;;;;;23.52;57.46;101597.44;5049555;28;20044;-49
2022/06/18 03:22:23;;;;;;;8.23;4.32;;;;;;;23.51;57.63;101594.97;5054860;28;20122;-47
2022/06/18 03:25:13;;;;;;;10.13;4.28;;;;;;;23.50;57.47;101593.31;5054347;28;20048;-50
2022/06/18 03:28:02;;;;;;;7.72;4.55;;;;;;;23.48;57.56;101595.66;5051360;28;20041;-50
2022/06/18 03:30:50;;;;;;;9.05;4.65;;;;;;;23.47;57.67;101596.78;5052915;28;20053;-49
2022/06/18 03:33:41;;;;;;;9.48;4.50;;;;;;;23.45;57.77;101607.44;5059600;28;20043;-48
2022/06/18 03:36:29;;;;;;;9.45;4.30;;;;;;;23.44;57.93;101608.59;5059943;28;20067;-51
2022/06/18 03:39:17;;;;;;;9.88;4.45;;;;;;;23.44;57.72;101612.19;5058750;28;20040;-50
2022/06/18 03:42:07;;;;;;;8.35;4.65;;;;;;;23.45;57.72;101615.78;5058206;28;20076;-46
2022/06/18 03:44:55;;;;;;;12.00;4.60;;;;;;;23.45;57.50;101611.06;5068809;28;20376;-51
2022/06/18 03:47:43;;;;;;;13.25;4.60;;;;;;;23.45;57.69;101615.78;5059000;28;20044;-46
2022/06/18 03:50:30;;;;;;;9.63;4.47;;;;;;;23.45;57.45;101605.50;5050422;28;20119;-50
2022/06/18 03:53:19;;;;;;;11.55;4.65;;;;;;;23.44;57.54;101611.38;5058435;28;20068;-47
2022/06/18 03:56:13;;;;;;;12.13;5.30;;;;;;;23.41;57.55;101601.75;5058437;28;20053;-53
2022/06/18 03:58:44;;;;;;;10.18;4.40;;;;;;;23.40;57.72;101602.88;5033772;28;20063;-49
2022/06/18 04:01:36;;;;;;;12.10;4.65;;;;;;;23.40;57.72;101594.53;5059416;28;20084;-49
2022/06/18 04:04:24;;;;;;;11.05;5.03;;;;;;;23.38;57.66;101596.88;5066548;28;20049;-49
2022/06/18 04:07:18;;;;;;;10.85;4.72;;;;;;;23.37;57.88;101600.78;5054833;28;20500;-50
2022/06/18 04:10:19;;;;;;;9.57;4.68;;;;;;;23.36;57.65;101593.59;5059404;28;20443;-50
2022/06/18 04:13:08;;;;;;;9.52;5.20;;;;;;;23.36;57.84;101593.59;5045961;28;20041;-49
2022/06/18 04:16:10;;;;;;;9.57;4.78;;;;;;;23.34;57.88;101591.16;5057131;28;20043;-48
2022/06/18 04:18:59;;;;;;;10.40;5.00;;;;;;;23.36;58.00;101594.41;5053146;28;20045;-49
2022/06/18 04:21:47;;;;;;;11.50;5.20;;;;;;;23.34;57.98;101593.94;5054988;28;20052;-49
2022/06/18 04:24:35;;;;;;;9.15;4.90;;;;;;;23.34;57.69;101585.59;5056947;28;20124;-51
2022/06/18 04:27:23;;;;;;;10.98;4.80;;;;;;;23.36;57.98;101590.81;5071141;28;20497;-49
2022/06/18 04:30:12;;;;;;;7.95;4.38;;;;;;;23.35;57.68;101589.97;5054274;28;20491;-49
2022/06/18 04:33:13;;;;;;;8.00;4.47;;;;;;;23.36;57.57;101586.06;5059071;28;20054;-49
2022/06/18 04:36:43;;;;;;;8.55;4.00;;;;;;;23.36;57.17;101588.03;5070620;28;20059;-50
2022/06/18 04:39:42;;;;;;;14.18;4.50;;;;;;;23.35;57.31;101589.97;5058927;28;20052;-50
2022/06/18 04:42:35;;;;;;;10.07;4.72;;;;;;;23.36;57.60;101583.28;5071313;28;20044;-50
2022/06/18 04:45:04;;;;;;;9.85;4.45;;;;;;;23.35;57.77;101584.41;5053782;28;20037;-46
2022/06/18 04:48:05;;;;;;;8.90;4.63;;;;;;;23.35;57.57;101591.94;5050325;28;20045;-48
2022/06/18 04:50:53;;;;;;;11.40;4.43;;;;;;;23.35;57.62;101584.41;5049205;28;20049;-48
2022/06/18 04:53:22;;;;;;;10.48;4.88;;;;;;;23.35;57.99;101592.75;5051747;28;20041;-49
2022/06/18 04:56:25;;;;;;;8.02;4.63;;;;;;;23.34;58.09;101595.91;5059251;28;20037;-48
2022/06/18 04:59:15;;;;;;;10.52;5.55;;;;;;;23.32;58.11;101599.00;5059514;28;20044;-49
2022/06/18 05:02:06;;;;;;;11.07;5.13;;;;;;;23.33;58.40;101594.25;5043682;28;20386;-50
2022/06/18 05:05:23;;;;;;;9.45;4.75;;;;;;;23.33;58.47;101597.88;5065621;28;20380;-47
2022/06/18 05:08:13;;;;;;;15.05;4.93;;;;;;;23.35;58.42;101595.53;5068763;28;20556;-48
2022/06/18 05:11:20;;;;;;;9.02;5.50;;;;;;;23.35;58.04;101598.31;5061382;28;20070;-47
2022/06/18 05:14:16;;;;;;;9.23;5.05;;;;;;;23.34;58.65;101591.16;5055167;28;20129;-47
2022/06/18 05:17:21;;;;;;;10.07;4.68;;;;;;;23.36;57.61;101599.16;5051153;28;20091;-47
2022/06/18 05:20:28;;;;;;;13.77;5.93;;;;;;;23.37;57.22;101600.78;5046535;28;20047;-48
2022/06/18 05:23:20;;;;;;;14.23;5.35;;;;;;;23.36;58.51;101608.31;5055239;28;20080;-49
2022/06/18 05:25:58;;;;;;;15.63;6.57;;;;;;;23.35;59.12;101615.00;5041378;28;20086;-49
2022/06/18 05:28:46;;;;;;;12.75;5.22;;;;;;;23.37;58.70;101600.78;5061113;28;20078;-50
2022/06/18 05:31:34;;;;;;;10.02;5.43;;;;;;;23.38;58.85;101602.44;5072009;28;20399;-49
2022/06/18 05:34:22;;;;;;;18.70;6.80;;;;;;;23.37;59.36;101601.59;5045391;28;20037;-50
2022/06/18 05:37:16;;;;;;;14.30;6.82;;;;;;;23.36;59.59;101611.09;5049732;28;20045;-49
2022/06/18 05:40:07;;;;;;;14.23;6.40;;;;;;;23.36;59.62;101616.66;5044836;28;20041;-49
2022/06/18 05:42:54;;;;;;;13.65;6.43;;;;;;;23.36;59.55;101627.78;5054223;28;20041;-50
2022/06/18 05:45:43;;;;;;;13.48;6.38;;;;;;;23.38;59.55;101621.91;5056189;28;20097;-50
2022/06/18 05:48:31;;;;;;;13.20;6.47;;;;;;;23.37;59.22;101623.03;5056097;28;20051;-50
2022/06/18 05:51:19;;;;;;;14.70;6.70;;;;;;;23.36;58.98;101622.22;5045656;28;20045;-48
2022/06/18 05:54:06;;;;;;;11.95;6.65;;;;;;;23.38;59.14;101614.34;5054262;28;20044;-49
2022/06/18 05:57:21;;;;;;;14.00;6.38;;;;;;;23.41;58.95;101617.63;5045702;28;20549;-49
2022/06/18 06:00:34;;;;;;;10.07;6.13;;;;;;;23.41;59.09;101612.88;5048217;28;20049;-48
2022/06/18 06:03:25;;;;;;;13.20;5.88;;;;;;;23.44;58.95;101617.75;5041684;28;20040;-49
2022/06/18 06:06:13;;;;;;;15.82;6.30;;;;;;;23.45;58.36;101608.28;5057429;28;20048;-49
2022/06/18 06:09:05;;;;;;;14.82;6.35;;;;;;;23.45;57.82;101613.00;5069225;28;20095;-49
2022/06/18 06:11:52;;;;;;;13.40;6.78;;;;;;;23.46;57.85;101609.09;5068869;28;20043;-50
2022/06/18 06:14:41;;;;;;;13.32;6.22;;;;;;;23.45;58.10;101601.88;4369368;28;10000397;-49
2022/06/18 06:17:28;;;;;;;17.40;6.93;;;;;;;23.46;58.21;101597.97;5042540;28;20044;-50
2022/06/18 06:20:28;;;;;;;14.75;6.70;;;;;;;23.48;58.30;101598.44;5064050;28;20492;-50
2022/06/18 06:23:15;;;;;;;14.70;6.90;;;;;;;23.48;58.02;101592.88;5069011;28;20112;-52
2022/06/18 06:26:05;;;;;;;16.02;7.25;;;;;;;23.50;58.28;101598.88;5058017;28;20045;-49
2022/06/18 06:28:53;;;;;;;19.63;8.48;;;;;;;23.49;58.18;101591.72;5054994;28;20052;-51
2022/06/18 06:31:40;;;;;;;31.70;8.50;;;;;;;23.45;58.77;101601.88;5058950;28;20049;-49
2022/06/18 06:34:28;;;;;;;16.65;7.68;;;;;;;23.43;58.68;101599.44;5060209;28;20048;-51
2022/06/18 06:37:17;;;;;;;22.13;7.70;;;;;;;23.42;58.59;101597.00;5041549;28;20165;-50
2022/06/18 06:40:06;;;;;;;21.10;8.32;;;;;;;23.44;58.99;101597.47;5065321;28;20054;-49
2022/06/18 06:42:57;;;;;;;15.48;7.43;;;;;;;23.47;58.79;101605.13;5068570;28;20048;-48
2022/06/18 06:45:45;;;;;;;12.90;7.38;;;;;;;23.49;58.47;101597.28;5061739;28;20056;-48
2022/06/18 06:48:32;;;;;;;14.73;6.43;;;;;;;23.46;58.62;101604.31;5068426;28;20048;-48
2022/06/18 06:51:31;;;;;;;23.20;8.20;;;;;;;23.45;58.95;101601.88;5066764;28;20559;-52
2022/06/18 06:54:25;;;;;;;24.85;7.65;;;;;;;23.46;59.09;101603.53;5042222;28;20127;-49
2022/06/18 06:57:21;;;;;;;22.67;7.50;;;;;;;23.50;59.46;101604.44;5053665;28;20105;-51
2022/06/18 07:00:10;;;;;;;17.27;7.20;;;;;;;23.53;59.23;101606.59;5060856;28;20060;-47
2022/06/18 07:02:58;;;;;;;15.70;7.18;;;;;;;23.58;59.23;101607.19;5050050;28;20053;-48
2022/06/18 07:05:48;;;;;;;20.23;7.10;;;;;;;23.63;59.18;101600.63;5062969;28;20212;-49
2022/06/18 07:08:35;;;;;;;13.55;7.60;;;;;;;23.66;59.17;101602.72;5069906;28;20487;-50
2022/06/18 07:11:23;;;;;;;16.02;7.63;;;;;;;23.70;59.48;101605.66;5070475;28;20124;-49
2022/06/18 07:14:11;;;;;;;17.73;8.05;;;;;;;23.69;58.89;101613.19;5067754;28;20504;-53
2022/06/18 07:16:58;;;;;;;17.95;8.25;;;;;;;23.68;59.44;101600.41;5060786;28;20499;-49
2022/06/18 07:19:46;;;;;;;24.00;9.20;;;;;;;23.67;59.81;101604.38;5059806;28;20052;-50
2022/06/18 07:22:33;;;;;;;17.15;8.45;;;;;;;23.67;59.90;101615.50;5058882;28;20450;-48
2022/06/18 07:25:21;;;;;;;22.17;9.63;;;;;;;23.69;59.74;101602.06;5061324;28;20045;-50
2022/06/18 07:28:09;;;;;;;21.35;8.98;;;;;;;23.70;59.94;101598.09;5069529;28;20056;-49
2022/06/18 07:30:57;;;;;;;23.23;8.32;;;;;;;23.71;60.08;101605.28;5071237;28;20507;-49
2022/06/18 07:33:45;;;;;;;18.75;8.90;;;;;;;23.74;59.70;101599.09;5064172;28;20053;-48
2022/06/18 07:36:33;;;;;;;16.67;8.50;;;;;;;23.78;59.87;101599.22;5053323;28;20056;-51
2022/06/18 07:39:21;;;;;;;18.40;8.68;;;;;;;23.81;59.73;101599.38;5071372;28;20048;-48
2022/06/18 07:42:09;;;;;;;18.73;8.57;;;;;;;23.86;60.70;101600.31;5071580;28;20048;-49
2022/06/18 07:44:57;;;;;;;19.20;7.35;;;;;;;23.89;60.70;101603.25;5054936;28;20438;-48
2022/06/18 07:47:45;;;;;;;19.02;8.02;;;;;;;23.94;60.36;101608.59;5061359;28;20582;-46
2022/06/18 07:50:33;;;;;;;17.73;7.72;;;;;;;23.98;60.40;101597.59;5060538;28;20057;-48
2022/06/18 07:53:23;;;;;;;18.77;8.90;;;;;;;24.01;59.42;101602.50;5068574;28;20080;-48
2022/06/18 07:56:14;;;;;;;13.60;7.25;;;;;;;24.04;59.42;101593.44;5066746;28;20055;-50
2022/06/18 07:59:02;;;;;;;16.35;7.60;;;;;;;24.07;59.65;101595.53;5071095;28;20048;-49
2022/06/18 08:01:50;;;;;;;15.65;8.55;;;;;;;24.08;58.99;101594.41;5071137;28;20052;-52
2022/06/18 08:04:38;;;;;;;13.88;7.25;;;;;;;24.12;59.61;101589.75;5067995;28;20058;-48
2022/06/18 08:07:25;;;;;;;14.10;7.32;;;;;;;24.17;59.08;101585.94;5066334;28;20056;-54
2022/06/18 08:10:13;;;;;;;16.13;7.68;;;;;;;24.21;58.72;101589.69;5071785;28;20055;-48
2022/06/18 08:13:01;;;;;;;16.38;7.95;;;;;;;24.24;59.69;101578.69;5071302;28;20053;-49
2022/06/18 08:15:49;;;;;;;20.13;7.50;;;;;;;24.30;59.49;101584.03;5059774;28;20415;-54
2022/06/18 08:18:36;;;;;;;19.33;8.57;;;;;;;24.30;59.63;101582.06;5060666;28;20052;-50
2022/06/18 08:21:36;;;;;;;19.60;8.48;;;;;;;24.33;60.16;101569.41;5053919;28;20050;-54
2022/06/18 08:24:24;;;;;;;20.13;9.20;;;;;;;24.31;60.42;101572.53;5064588;28;20044;-49
2022/06/18 08:27:14;;;;;;;20.17;8.30;;;;;;;24.31;60.33;101566.16;5045234;28;20115;-51
2022/06/18 08:30:04;;;;;;;29.08;10.05;;;;;;;24.31;60.86;101572.53;5071735;28;20047;-49
2022/06/18 08:32:51;;;;;;;17.67;9.25;;;;;;;24.36;60.91;101574.28;5074117;28;20123;-49
2022/06/18 08:35:39;;;;;;;19.20;8.73;;;;;;;24.40;60.88;101566.88;5068327;28;20045;-50
2022/06/18 08:38:28;;;;;;;19.85;8.15;;;;;;;24.45;60.78;101563.88;5067551;28;20491;-49
2022/06/18 08:41:35;;;;;;;21.63;8.75;;;;;;;24.50;60.08;101574.03;5072348;28;20075;-49
2022/06/18 08:44:28;;;;;;;17.17;8.35;;;;;;;24.53;59.18;101571.34;5073755;28;20037;-55
2022/06/18 08:47:20;;;;;;;12.60;6.13;;;;;;;24.56;59.13;101572.66;5063852;28;20048;-48
2022/06/18 08:50:13;;;;;;;26.90;9.50;;;;;;;24.62;59.72;101566.50;5072448;28;20556;-49
2022/06/18 08:53:14;;;;;;;19.98;8.52;;;;;;;24.63;59.54;101567.31;5071463;28;20044;-48
2022/06/18 08:56:19;;;;;;;19.10;7.65;;;;;;;24.67;59.05;101574.63;5054909;28;20500;-53
2022/06/18 08:59:08;;;;;;;17.83;9.00;;;;;;;24.71;59.00;101579.53;5073619;28;20049;-51
2022/06/18 09:02:03;;;;;;;25.45;9.75;;;;;;;24.74;60.30;101578.81;5058224;28;20049;-49
2022/06/18 09:05:00;;;;;;;16.25;9.07;;;;;;;24.78;60.59;101574.19;5070108;28;20080;-50
2022/06/18 09:08:29;;;;;;;25.08;9.15;;;;;;;24.81;60.48;101570.72;5054305;28;20044;-49
2022/06/18 09:11:49;;;;;;;23.75;10.07;;;;;;;24.84;60.83;101578.38;5070659;28;20487;-50
2022/06/18 09:14:58;;;;;;;24.83;10.52;;;;;;;24.88;60.03;101579.31;5050148;28;20053;-50
2022/06/18 09:17:54;;;;;;;18.20;8.25;;;;;;;24.94;58.15;101589.06;5058513;28;20055;-50
2022/06/18 09:20:57;;;;;;;21.02;8.20;;;;;;;24.98;57.72;101584.41;5055654;28;20415;-49
2022/06/18 09:23:53;;;;;;;24.92;8.80;;;;;;;25.02;58.10;101579.78;5070254;28;20048;-50
2022/06/18 09:26:44;;;;;;;23.30;9.20;;;;;;;25.05;59.36;101573.50;5069953;28;20040;-50
2022/06/18 09:29:40;;;;;;;22.38;8.65;;;;;;;25.05;59.00;101578.25;5055843;28;20045;-47
2022/06/18 09:33:00;;;;;;;25.40;10.13;;;;;;;25.08;60.21;101561.63;5071046;28;20090;-49
2022/06/18 09:35:48;;;;;;;23.15;10.60;;;;;;;25.12;59.39;101569.31;5069455;28;20041;-50
2022/06/18 09:38:52;;;;;;;21.08;10.73;;;;;;;25.13;59.28;101568.16;5073191;28;20048;-50
2022/06/18 09:41:45;;;;;;;22.92;9.32;;;;;;;25.14;59.44;101555.84;5058286;28;20060;-52
2022/06/18 09:45:00;;;;;;;23.63;9.65;;;;;;;25.20;59.67;101558.06;5069382;28;20041;-48
2022/06/18 09:47:49;;;;;;;31.08;10.23;;;;;;;25.25;59.38;101557.81;5072638;28;20838;-48
2022/06/18 09:50:49;;;;;;;18.17;9.23;;;;;;;25.28;59.23;101551.56;5072647;28;20048;-52
2022/06/18 09:53:39;;;;;;;19.50;10.00;;;;;;;25.28;59.22;101540.41;5052687;28;20131;-48
2022/06/18 09:56:32;;;;;;;25.38;10.60;;;;;;;25.29;59.23;101549.56;5057959;28;20044;-52
2022/06/18 09:59:28;;;;;;;21.33;9.57;;;;;;;25.29;59.25;101538.41;5058398;28;20052;-51
2022/06/18 10:02:27;;;;;;;20.33;9.00;;;;;;;25.39;59.73;101551.88;5070791;28;20483;-50
2022/06/18 10:08:53;;;;;;;28.20;9.55;;;;;;;25.51;56.49;101546.28;5072605;28;20048;-48
2022/06/18 10:11:43;;;;;;;26.13;8.50;;;;;;;25.54;55.77;101546.72;5068818;28;20040;-49
2022/06/18 10:14:31;;;;;;;18.70;8.18;;;;;;;25.54;55.90;101541.97;5067558;28;20044;-46
2022/06/18 10:17:43;;;;;;;23.38;8.27;;;;;;;25.61;55.53;101535.78;5072767;28;20495;-46
2022/06/18 10:20:50;;;;;;;25.73;9.18;;;;;;;25.66;56.13;101535.53;5073216;28;20044;-47
2022/06/18 10:24:10;;;;;;;18.73;7.10;;;;;;;25.71;55.87;101543.66;5056392;28;20098;-49
2022/06/18 10:27:00;;;;;;;20.40;8.38;;;;;;;25.78;55.26;101541.06;5070912;28;20098;-50
2022/06/18 10:29:53;;;;;;;22.88;7.38;;;;;;;25.83;55.97;101538.06;5072425;28;20041;-50
2022/06/18 10:32:46;;;;;;;21.80;7.45;;;;;;;25.88;55.89;101540.63;5061536;28;20487;-46
2022/06/18 10:35:54;;;;;;;22.90;7.10;;;;;;;25.97;55.84;101536.84;5072228;28;20056;-49
2022/06/18 10:39:09;;;;;;;17.20;7.20;;;;;;;26.03;55.04;101532.63;5055046;28;20053;-49
2022/06/18 10:42:18;;;;;;;17.92;5.53;;;;;;;26.03;54.39;101522.28;5056871;28;20052;-48
2022/06/18 10:45:40;;;;;;;19.85;5.90;;;;;;;26.03;53.99;101527.06;5075918;28;20041;-49
2022/06/18 10:48:30;;;;;;;26.63;6.72;;;;;;;26.10;54.48;101518.88;5075690;28;20491;-47
2022/06/18 10:51:21;;;;;;;18.10;6.97;;;;;;;26.04;53.52;101514.72;5073225;28;20091;-51
2022/06/18 10:54:09;;;;;;;20.27;7.05;;;;;;;26.15;53.58;101518.63;5075891;28;20406;-54
2022/06/18 10:56:57;;;;;;;19.20;6.68;;;;;;;26.21;54.02;101511.56;5058658;28;20044;-48
2022/06/18 10:59:44;;;;;;;16.75;6.65;;;;;;;26.25;53.19;101506.91;5073031;28;20040;-48
2022/06/18 11:02:35;;;;;;;22.15;6.88;;;;;;;26.28;53.94;101508.16;5054049;28;20045;-48
2022/06/18 11:05:36;;;;;;;21.73;6.68;;;;;;;26.33;53.65;101505.91;5075711;28;20470;-51
2022/06/18 11:08:33;;;;;;;21.70;6.75;;;;;;;26.40;53.19;101502.50;5076037;28;20178;-50
2022/06/18 11:11:30;;;;;;;24.98;8.10;;;;;;;26.46;53.07;101498.28;5071860;28;20487;-52
2022/06/18 11:14:19;;;;;;;21.50;6.68;;;;;;;26.50;51.82;101501.16;5074279;28;20441;-48
2022/06/18 11:17:25;;;;;;;22.13;6.55;;;;;;;26.51;51.70;101489.63;5061679;28;20150;-48
2022/06/18 11:20:17;;;;;;;21.75;6.88;;;;;;;26.56;52.19;101492.16;5074136;28;20078;-51
2022/06/18 11:23:16;;;;;;;26.13;7.45;;;;;;;26.63;51.57;101488.75;5075185;28;20044;-50
2022/06/18 11:26:10;;;;;;;22.27;6.82;;;;;;;26.66;51.91;101476.03;5076532;28;20071;-48
2022/06/18 11:29:07;;;;;;;15.60;5.50;;;;;;;26.66;52.76;101476.81;5073179;28;20549;-52
2022/06/18 11:31:58;;;;;;;20.67;7.07;;;;;;;26.70;52.60;101465.75;5058200;28;20117;-51
2022/06/18 11:34:50;;;;;;;22.48;7.97;;;;;;;26.72;52.12;101463.38;5070204;28;20056;-51
2022/06/18 11:37:38;;;;;;;22.15;6.53;;;;;;;26.75;52.30;101455.09;5055911;28;20045;-50
2022/06/18 11:40:26;;;;;;;21.88;6.70;;;;;;;26.83;52.25;101452.44;5060002;28;20048;-49
2022/06/18 11:43:22;;;;;;;17.40;6.53;;;;;;;26.86;51.45;101451.72;5061063;28;20491;-48
2022/06/18 11:46:16;;;;;;;21.65;6.40;;;;;;;26.86;51.24;101446.94;5074818;28;20098;-50
2022/06/18 11:49:55;;;;;;;19.80;7.00;;;;;;;26.87;51.98;101442.97;5060529;28;20051;-49
2022/06/18 11:53:05;;;;;;;17.38;7.55;;;;;;;26.89;51.15;101437.00;5050495;28;20056;-48
2022/06/18 11:55:56;;;;;;;20.00;6.03;;;;;;;26.93;51.32;101435.09;5074315;28;20403;-48
2022/06/18 11:58:51;;;;;;;17.40;6.05;;;;;;;26.97;51.55;101433.19;5074483;28;20094;-47
2022/06/18 12:01:44;;;;;;;29.33;6.60;;;;;;;27.01;51.24;101436.88;5073489;28;20411;-49
2022/06/18 12:04:39;;;;;;;25.38;6.95;;;;;;;27.06;50.84;101433.81;5070139;28;20135;-49
2022/06/18 12:07:43;;;;;;;18.73;6.05;;;;;;;27.14;50.35;101429.97;5053482;28;20060;-46
2022/06/18 12:10:46;;;;;;;20.33;6.38;;;;;;;27.12;50.36;101429.53;5046340;28;20502;-49
2022/06/18 12:13:48;;;;;;;14.65;5.80;;;;;;;27.08;51.44;101437.03;5074414;28;20041;-50
2022/06/18 12:17:07;;;;;;;20.80;7.47;;;;;;;27.22;52.45;101430.16;5072499;28;20044;-48
2022/06/18 12:20:09;;;;;;;19.75;7.10;;;;;;;27.36;51.48;101433.25;5053136;28;20040;-49
2022/06/18 12:23:16;;;;;;;16.75;6.63;;;;;;;27.39;50.18;101435.31;5057369;28;20475;-49
2022/06/18 12:26:23;;;;;;;19.27;5.72;;;;;;;27.37;49.79;101432.06;5073149;28;20044;-48
2022/06/18 12:29:20;;;;;;;18.58;6.38;;;;;;;27.38;49.33;101422.50;5073954;28;20419;-50
2022/06/18 12:32:21;;;;;;;18.27;6.80;;;;;;;27.39;50.22;101424.13;5054867;28;20045;-49
2022/06/18 12:35:19;;;;;;;17.10;5.88;;;;;;;27.38;50.50;101414.13;5063955;28;20155;-50
2022/06/18 12:38:30;;;;;;;21.85;7.50;;;;;;;27.41;50.56;101410.56;5070113;28;20047;-48
2022/06/18 12:41:40;;;;;;;16.85;6.35;;;;;;;27.36;50.81;101405.28;5071351;28;20052;-50
2022/06/18 12:44:37;;;;;;;20.13;7.03;;;;;;;27.43;51.54;101401.81;5058364;28;20491;-50
2022/06/18 12:47:27;;;;;;;18.77;6.78;;;;;;;27.47;52.32;101391.47;5056069;28;20078;-50
2022/06/18 12:50:30;;;;;;;22.55;6.55;;;;;;;27.55;51.98;101393.25;5072925;28;20071;-47
2022/06/18 12:53:59;;;;;;;14.25;5.88;;;;;;;27.60;51.53;101393.75;5074371;28;20059;-49
2022/06/18 12:57:04;;;;;;;18.35;5.95;;;;;;;27.56;50.27;101380.88;5064191;28;20050;-47
2022/06/18 13:00:13;;;;;;;22.75;6.28;;;;;;;27.53;49.87;101379.63;5073217;28;20047;-48
2022/06/18 13:03:25;;;;;;;18.42;6.10;;;;;;;27.71;50.44;101379.97;5073536;28;20060;-53
2022/06/18 13:06:16;;;;;;;25.80;7.28;;;;;;;27.75;50.25;101377.22;5070690;28;20049;-47
2022/06/18 13:09:18;;;;;;;24.80;7.25;;;;;;;27.74;51.15;101372.81;5067979;28;20044;-51
2022/06/18 13:12:25;;;;;;;16.40;6.85;;;;;;;27.85;50.77;101364.63;5072467;28;20045;-47
2022/06/18 13:15:18;;;;;;;16.98;6.13;;;;;;;27.90;50.39;101367.09;5071505;28;20052;-50
2022/06/18 13:18:16;;;;;;;19.75;7.13;;;;;;;27.88;50.72;101367.50;5069360;28;20048;-51
2022/06/18 13:21:07;;;;;;;23.83;7.40;;;;;;;27.95;50.49;101359.22;5072849;28;20052;-50
2022/06/18 13:30:27;;;;;;;22.23;7.18;;;;;;;27.93;50.35;101358.78;5072704;28;20053;-49
2022/06/18 13:33:45;;;;;;;23.85;7.25;;;;;;;28.01;50.48;101357.69;5058326;28;20052;-48
2022/06/18 13:36:55;;;;;;;21.10;7.03;;;;;;;28.07;49.74;101346.19;5051344;28;20056;-48
2022/06/18 13:40:00;;;;;;;25.02;7.00;;;;;;;28.13;50.25;101344.69;5056248;28;20051;-50